KHZR

False River Regional Airport

New Roads, Louisiana, USA
METAR KHZR 220035Z AUTO 17009G15KT 10SM SCT034 SCT043 24/19 A3016 RMK AO2 LTG DSNT W AND NW T02430192
Observed Flight Rules
Feb-22 @ 00:35 UTC (4 hours ago) Visual Flight Rules
Wind Visibility Clouds
170° at 9 knots
 Gusting to 15 knots
10 miles
  • Scattered at 3,400' AGL
  • Scattered at 4,300' AGL
Temperatures Readings
Current 24°C / 75°F
Dewpoint 19°C / 66°F
Humidity 74%
Altimeter 30.16" Hg
Pressure 1021 hPa
Elevation 12
METAR KHZR 220035Z AUTO 17009G15KT 10SM SCT034 SCT043 24/19 A3016 RMK AO2 LTG DSNT W AND NW T02430192
Observed Flight Rules
Feb-22 @ 00:35 UTC
(4 hours ago)
VFR
Wind Visibility
170° at 9 knots
 Gusting to 15 knots
10 miles
Clouds
  • Scattered at 3,400' AGL
  • Scattered at 4,300' AGL
Temperature Dewpoint
24°C / 75°F 19°C / 66°F
Humidity Altimeter Pressure
74% 30.16" Hg 1021 hPa